Time;durP1;ratioP1;P1;durP2;ratioP2;P2;SDS_P1;SDS_P2;PMS_P1;PMS_P2;Temp;Humidity;BMP_temperature;BMP_pressure;BME280_temperature;BME280_humidity;BME280_pressure;Samples;Min_cycle;Max_cycle;Signal;HPM_P1;HPM_P2
2023/07/31 00:00:10;;;;;;;3.50;1.73;;;20.20;99.90;;;19.01;97.34;99750.25;10320220;28;96627;-82
2023/07/31 00:05:14;;;;;;;3.28;1.88;;;20.20;99.90;;;18.96;98.34;99759.06;10352559;28;96814;-82
2023/07/31 00:10:17;;;;;;;2.15;1.75;;;20.10;99.90;;;18.87;98.93;99742.41;10322008;28;96877;-82
2023/07/31 00:15:21;;;;;;;1.90;1.50;;;20.10;99.90;;;18.73;99.95;99727.53;10333073;28;96622;-81
2023/07/31 00:20:25;;;;;;;2.70;1.85;;;20.00;99.90;;;18.73;100.00;99748.25;10309342;28;97580;-82
2023/07/31 00:25:28;;;;;;;3.03;1.83;;;19.90;99.90;;;18.73;100.00;99748.25;10299618;28;97063;-82
2023/07/31 00:30:32;;;;;;;3.33;1.90;;;19.90;99.90;;;18.70;100.00;99752.22;10314887;28;96621;-81
2023/07/31 00:35:36;;;;;;;2.45;1.83;;;19.90;99.90;;;18.72;100.00;99763.59;10315425;28;96395;-82
2023/07/31 00:40:40;;;;;;;3.00;1.92;;;19.90;99.90;;;18.70;100.00;99768.38;10339890;28;97437;-82
2023/07/31 00:45:44;;;;;;;3.65;2.20;;;19.90;99.90;;;18.68;100.00;99760.53;10362130;28;96734;-82
2023/07/31 00:50:47;;;;;;;3.25;1.70;;;19.90;99.90;;;18.70;100.00;99768.38;10326482;28;96685;-82
2023/07/31 00:55:52;;;;;;;3.58;1.88;;;19.90;99.90;;;18.63;100.00;99759.56;10311867;28;96827;-82
2023/07/31 01:00:55;;;;;;;2.80;1.98;;;19.90;99.90;;;18.61;100.00;99767.88;10319827;28;98466;-82
2023/07/31 01:06:22;;;;;;;3.53;2.00;;;19.90;99.90;;;18.53;100.00;99759.28;10330977;28;97068;-82
2023/07/31 01:11:30;;;;;;;2.78;1.67;;;19.80;99.90;;;18.41;100.00;99752.03;10322654;28;96806;-83
2023/07/31 01:16:33;;;;;;;2.10;1.83;;;19.70;99.90;;;18.34;100.00;99762.03;10337960;28;96780;-84
2023/07/31 01:22:18;;;;;;;2.85;2.30;;;19.60;99.90;;;18.27;100.00;99758.63;10315759;28;98662;-84
2023/07/31 01:27:37;;;;;;;4.60;2.75;;;19.50;99.90;;;18.19;100.00;99767.84;10326385;28;96703;-84
2023/07/31 01:32:43;;;;;;;2.87;2.40;;;19.40;99.90;;;18.16;100.00;99788.97;10336785;28;96639;-83
2023/07/31 01:37:47;;;;;;;2.67;2.20;;;19.40;99.90;;;18.13;100.00;99781.38;10338792;28;97204;-83
2023/07/31 01:42:51;;;;;;;3.28;2.28;;;19.40;99.90;;;18.10;100.00;99779.13;10317495;28;96763;-83
2023/07/31 01:47:54;;;;;;;3.65;2.55;;;19.40;99.90;;;18.10;100.00;99773.75;10324141;28;97980;-83
2023/07/31 01:52:58;;;;;;;2.50;2.03;;;19.40;99.90;;;18.06;100.00;99768.03;10327016;28;96584;-84
2023/07/31 01:58:02;;;;;;;2.90;2.10;;;19.40;99.90;;;18.05;100.00;99762.84;10323632;28;97589;-83
2023/07/31 02:03:05;;;;;;;12.23;9.57;;;19.40;99.90;;;18.06;100.00;99772.59;10313750;28;96670;-84
2023/07/31 02:08:09;;;;;;;4.75;2.90;;;19.30;99.90;;;17.99;100.00;99774.53;10300544;28;97250;-83
2023/07/31 02:13:12;;;;;;;3.65;2.97;;;19.30;99.90;;;17.95;100.00;99770.66;10325223;28;97296;-83
2023/07/31 02:18:16;;;;;;;5.38;2.58;;;19.20;99.90;;;17.87;100.00;99778.00;10299930;28;97519;-83
2023/07/31 02:23:20;;;;;;;3.45;2.20;;;19.10;99.90;;;17.80;100.00;99777.22;10336775;28;97871;-83
2023/07/31 02:28:23;;;;;;;3.10;2.50;;;19.10;99.90;;;17.81;100.00;99802.25;10310168;28;96623;-83
2023/07/31 02:33:27;;;;;;;2.83;2.22;;;19.10;99.90;;;17.75;100.00;99793.25;10300125;28;96551;-83
2023/07/31 02:38:31;;;;;;;4.20;2.40;;;19.00;99.90;;;17.73;100.00;99795.31;10307839;28;96560;-83
2023/07/31 02:43:34;;;;;;;3.72;2.05;;;19.00;99.90;;;17.67;100.00;99794.31;10312725;28;98006;-83
2023/07/31 02:48:38;;;;;;;4.72;2.17;;;18.90;99.90;;;17.58;100.00;99794.84;10310403;28;96566;-83
2023/07/31 02:53:42;;;;;;;2.50;2.05;;;18.90;99.90;;;17.51;100.00;99802.97;10337659;28;96756;-82
2023/07/31 02:58:46;;;;;;;4.07;2.35;;;18.80;99.90;;;17.54;100.00;99815.13;10321309;28;97182;-82
2023/07/31 03:03:50;;;;;;;3.35;2.40;;;18.80;99.90;;;17.59;100.00;99809.91;10327447;28;97295;-83
2023/07/31 03:08:53;;;;;;;3.63;2.50;;;18.80;99.90;;;17.58;100.00;99808.28;10297109;28;96521;-82
2023/07/31 03:13:57;;;;;;;2.50;2.00;;;18.80;99.90;;;17.62;100.00;99809.44;10330730;28;97473;-82
2023/07/31 03:19:01;;;;;;;2.65;2.22;;;18.90;99.90;;;17.63;100.00;99811.94;10328726;28;96613;-84
2023/07/31 03:24:05;;;;;;;4.97;2.33;;;18.90;99.90;;;17.71;100.00;99810.81;10338085;28;98050;-84
2023/07/31 03:29:08;;;;;;;4.18;2.38;;;19.00;99.90;;;17.81;100.00;99815.69;10317749;28;96774;-84
2023/07/31 03:34:12;;;;;;;4.47;2.25;;;19.10;99.90;;;17.84;100.00;99816.06;10306466;28;98198;-84
2023/07/31 03:39:19;;;;;;;4.13;1.75;;;19.10;99.90;;;17.83;100.00;99814.44;10314868;28;96653;-84
2023/07/31 03:44:22;;;;;;;3.75;1.90;;;19.10;99.90;;;17.83;100.00;99813.59;10319062;28;97370;-83
2023/07/31 03:49:26;;;;;;;3.22;2.10;;;19.10;99.90;;;17.79;100.00;99813.22;10335445;28;96571;-83
2023/07/31 03:54:30;;;;;;;3.05;1.88;;;19.10;99.90;;;17.87;100.00;99806.72;10331052;28;97819;-84
2023/07/31 03:59:33;;;;;;;3.63;1.48;;;19.10;99.90;;;17.99;100.00;99796.03;10292828;28;97555;-82
2023/07/31 04:04:37;;;;;;;1.85;1.50;;;19.20;99.90;;;18.10;100.00;99792.56;10331287;28;96655;-80
2023/07/31 04:09:41;;;;;;;2.88;1.33;;;19.30;99.90;;;18.25;99.69;99789.50;10325415;28;98316;-82
2023/07/31 04:14:44;;;;;;;2.28;1.30;;;19.50;99.90;;;18.37;96.91;99785.00;10315156;28;96559;-82
2023/07/31 04:19:48;;;;;;;3.35;1.55;;;19.60;99.90;;;18.46;94.67;99792.50;10320664;28;98295;-82
2023/07/31 04:24:51;;;;;;;1.77;1.10;;;19.70;99.90;;;18.55;93.65;99792.19;10308289;28;96878;-81
2023/07/31 04:29:55;;;;;;;2.15;1.30;;;19.80;99.90;;;18.56;92.10;99785.75;10314248;28;96604;-81
2023/07/31 04:34:59;;;;;;;1.75;0.98;;;19.80;99.90;;;18.56;88.76;99793.81;10327561;28;96741;-81
2023/07/31 04:40:03;;;;;;;2.40;1.13;;;19.80;99.90;;;18.52;86.56;99796.13;10314582;28;96699;-81
2023/07/31 04:45:08;;;;;;;2.10;1.27;;;19.80;99.90;;;18.53;82.74;99791.56;10307637;28;98915;-81
2023/07/31 04:50:15;;;;;;;3.00;1.30;;;19.80;99.90;;;18.51;81.69;99788.28;10295253;28;97220;-81
2023/07/31 04:55:18;;;;;;;3.08;1.48;;;19.80;99.90;;;18.42;80.38;99795.88;10319628;28;96607;-81
2023/07/31 05:00:22;;;;;;;2.97;1.20;;;19.70;99.90;;;18.39;79.01;99801.72;10320553;28;96871;-81
2023/07/31 05:05:25;;;;;;;4.47;1.30;;;19.60;99.90;;;18.39;76.76;99809.78;10329277;28;98138;-81
2023/07/31 05:10:29;;;;;;;3.53;1.25;;;19.60;99.90;;;18.43;77.06;99802.91;10318481;28;96742;-81
2023/07/31 05:15:33;;;;;;;2.35;1.40;;;19.70;99.90;;;18.43;76.83;99809.09;10315987;28;96667;-81
2023/07/31 05:20:37;;;;;;;2.15;1.27;;;19.70;99.90;;;18.42;76.56;99799.41;10324879;28;98365;-82
2023/07/31 05:25:40;;;;;;;2.10;1.15;;;19.70;99.90;;;18.44;76.14;99805.34;10326620;28;96581;-83
2023/07/31 05:30:44;;;;;;;2.63;1.30;;;19.70;99.90;;;18.48;75.28;99810.28;10330835;28;96698;-82
2023/07/31 05:35:47;;;;;;;2.58;1.20;;;19.80;99.90;;;18.59;73.42;99825.63;10377842;28;96407;-82
2023/07/31 05:40:51;;;;;;;5.13;1.65;;;19.80;99.20;;;18.65;73.52;99825.56;10311105;28;98325;-80
2023/07/31 05:45:55;;;;;;;2.75;1.35;;;19.90;99.00;;;18.70;74.70;99830.25;10306779;28;98073;-81
2023/07/31 05:50:58;;;;;;;2.58;1.30;;;19.90;99.40;;;18.69;74.27;99823.25;10327820;28;96737;-81
2023/07/31 05:56:02;;;;;;;3.78;1.58;;;19.90;99.30;;;18.70;74.02;99820.31;10333664;28;98426;-81
2023/07/31 06:01:05;;;;;;;3.92;1.73;;;19.90;99.20;;;18.69;74.60;99834.00;10330427;28;96530;-82
2023/07/31 06:06:09;;;;;;;2.15;1.35;;;19.90;99.30;;;18.67;74.41;99831.56;10301803;28;96652;-82
2023/07/31 06:11:13;;;;;;;4.43;1.40;;;19.90;99.20;;;18.55;74.97;99833.38;10299793;28;96636;-82
2023/07/31 06:16:17;;;;;;;2.45;1.38;;;19.80;99.40;;;18.62;74.39;99839.47;10318955;28;97205;-82
2023/07/31 06:21:21;;;;;;;3.45;1.35;;;19.80;99.20;;;18.74;73.94;99842.22;10362801;28;96620;-85
2023/07/31 06:26:24;;;;;;;4.32;1.30;;;19.90;99.00;;;18.87;74.16;99842.03;10318793;28;96914;-83
2023/07/31 06:31:29;;;;;;;2.97;1.33;;;20.10;99.00;;;18.96;73.33;99839.81;10354373;28;96812;-83
2023/07/31 06:36:33;;;;;;;2.40;1.33;;;20.20;98.80;;;19.01;74.21;99841.81;10308066;28;97333;-82
2023/07/31 06:41:37;;;;;;;3.92;1.50;;;20.20;98.90;;;19.11;74.49;99834.81;10312431;28;98441;-82
2023/07/31 06:46:43;;;;;;;3.78;1.30;;;20.30;99.00;;;19.19;75.06;99836.31;10338798;28;96519;-81
2023/07/31 06:51:46;;;;;;;3.28;1.50;;;20.40;99.20;;;19.34;76.65;99836.69;10324348;28;96679;-81
2023/07/31 06:56:50;;;;;;;4.28;1.63;;;20.50;99.60;;;19.42;76.58;99836.34;10317651;28;97725;-81
2023/07/31 07:01:53;;;;;;;2.53;1.42;;;20.70;99.60;;;19.56;73.52;99845.03;10330370;28;97468;-82
2023/07/31 07:06:57;;;;;;;2.67;1.30;;;20.80;99.10;;;19.70;72.49;99857.22;10316766;28;96628;-81
2023/07/31 07:12:01;;;;;;;3.70;1.30;;;20.90;98.30;;;19.85;71.58;99854.06;10328775;28;98230;-82
2023/07/31 07:17:05;;;;;;;2.83;1.38;;;21.10;98.10;;;20.04;70.47;99844.75;10368087;28;96592;-81
2023/07/31 07:22:10;;;;;;;2.10;1.40;;;21.30;97.70;;;20.20;69.39;99856.66;10355423;28;97990;-82
2023/07/31 07:27:14;;;;;;;2.00;1.23;;;21.40;97.00;;;20.35;68.83;99853.44;10343649;28;96866;-81
2023/07/31 07:32:18;;;;;;;3.15;1.33;;;21.60;96.90;;;20.51;68.63;99847.31;10318653;28;98565;-81
2023/07/31 07:37:22;;;;;;;2.65;1.45;;;21.70;96.70;;;20.66;66.45;99849.47;10315797;28;96497;-81
2023/07/31 07:42:26;;;;;;;2.83;1.10;;;21.90;95.60;;;20.73;62.57;99847.44;10331000;28;96623;-82
2023/07/31 07:47:30;;;;;;;5.93;1.30;;;22.00;94.00;;;20.82;62.43;99861.38;10322762;28;96658;-79
2023/07/31 07:52:33;;;;;;;3.13;1.00;;;22.10;93.80;;;20.88;60.08;99836.09;10330853;28;96901;-80
2023/07/31 07:57:37;;;;;;;2.72;0.93;;;22.20;93.00;;;20.98;59.16;99851.63;10334910;28;96630;-82
2023/07/31 08:02:41;;;;;;;3.63;1.10;;;22.20;92.00;;;20.93;57.41;99827.25;10324141;28;96743;-82
2023/07/31 08:07:44;;;;;;;3.72;1.08;;;22.20;90.90;;;21.03;57.25;99843.63;10328686;28;96668;-81
2023/07/31 08:12:48;;;;;;;4.38;1.10;;;22.30;90.50;;;21.16;55.82;99846.00;10315054;28;96757;-81
2023/07/31 08:17:52;;;;;;;2.50;1.25;;;22.40;89.90;;;21.26;56.22;99851.56;10306935;28;98596;-85
2023/07/31 08:22:55;;;;;;;9.40;2.33;;;22.50;89.80;;;21.36;56.92;99853.66;10323633;28;96671;-82
2023/07/31 08:27:59;;;;;;;3.33;1.20;;;22.60;89.80;;;21.46;55.74;99847.56;10309213;28;96616;-81
2023/07/31 08:33:03;;;;;;;2.80;1.35;;;22.60;88.40;;;21.52;53.63;99850.09;10321683;28;97561;-82
2023/07/31 08:38:07;;;;;;;6.78;1.65;;;22.70;86.30;;;21.58;53.53;99838.28;10329164;28;96624;-82
2023/07/31 08:43:11;;;;;;;3.38;1.30;;;22.80;85.90;;;21.73;53.59;99828.78;10321203;28;96606;-81
2023/07/31 08:48:17;;;;;;;3.45;1.00;;;22.90;85.40;;;21.89;53.28;99841.41;10329895;28;96489;-82
2023/07/31 08:53:21;;;;;;;2.42;1.05;;;23.10;85.20;;;21.99;51.43;99833.44;10330249;28;96528;-82
2023/07/31 08:58:31;;;;;;;3.03;1.17;;;23.20;83.20;;;22.05;53.09;99835.13;10329771;28;97597;-82
2023/07/31 09:03:37;;;;;;;3.50;1.42;;;23.30;83.80;;;22.09;50.39;99838.16;10294500;28;97501;-82
2023/07/31 09:08:42;;;;;;;3.38;0.95;;;23.30;80.80;;;22.13;51.39;99828.47;10292640;28;96632;-81
2023/07/31 09:13:48;;;;;;;2.90;1.15;;;23.40;81.40;;;22.23;50.07;99828.59;10283296;28;96565;-81
2023/07/31 09:18:56;;;;;;;2.15;1.00;;;23.40;80.70;;;22.27;50.31;99826.22;10285639;28;97216;-81
2023/07/31 09:24:00;;;;;;;3.80;1.60;;;23.50;79.90;;;22.32;50.05;99827.09;10290348;28;96735;-82
2023/07/31 09:29:07;;;;;;;3.10;0.98;;;23.50;79.10;;;22.45;51.27;99834.00;10300376;28;96457;-80
2023/07/31 09:34:13;;;;;;;2.42;1.10;;;23.70;80.40;;;22.60;49.62;99834.13;10297615;28;98373;-80
2023/07/31 09:39:19;;;;;;;4.65;1.40;;;23.80;78.80;;;22.62;49.92;99823.06;10293664;28;96515;-81
2023/07/31 09:44:40;;;;;;;4.85;1.30;;;23.80;78.30;;;22.63;49.40;99805.75;10258050;28;96578;-80
2023/07/31 09:49:46;;;;;;;2.90;1.08;;;23.80;76.90;;;22.75;49.28;99828.06;10298231;28;98268;-82
2023/07/31 09:54:49;;;;;;;3.92;1.33;;;23.90;77.50;;;22.94;48.31;99814.97;10315888;28;97106;-81
2023/07/31 09:59:55;;;;;;;1.50;0.90;;;24.10;77.20;;;23.03;47.76;99813.44;10258598;28;96459;-82
2023/07/31 10:05:03;;;;;;;2.78;0.80;;;24.20;75.70;;;23.14;47.36;99808.91;10291977;28;98931;-81
2023/07/31 10:10:11;;;;;;;4.35;1.02;;;24.30;74.80;;;23.26;47.11;99811.41;10297451;28;96694;-81
2023/07/31 10:15:16;;;;;;;4.05;1.48;;;24.40;74.20;;;23.35;47.59;99816.09;10307666;28;96591;-80
2023/07/31 10:20:21;;;;;;;2.67;1.25;;;24.60;74.50;;;23.49;49.46;99816.47;10292692;28;96549;-80
2023/07/31 10:25:28;;;;;;;3.45;1.10;;;24.70;75.80;;;23.61;49.08;99797.28;10276234;28;96528;-80
2023/07/31 10:30:37;;;;;;;3.00;1.40;;;24.80;76.30;;;23.75;49.88;99803.91;10282427;28;98520;-79
2023/07/31 10:35:41;;;;;;;1.80;0.90;;;24.90;76.50;;;23.96;48.92;99799.38;10284974;28;96545;-80
2023/07/31 10:40:45;;;;;;;4.70;0.90;;;25.10;76.20;;;24.18;47.08;99796.47;10286969;28;96996;-80
2023/07/31 10:45:49;;;;;;;3.72;1.17;;;25.30;74.90;;;24.14;46.35;99796.16;10280338;28;97463;-80
2023/07/31 10:50:56;;;;;;;2.00;1.05;;;25.30;72.90;;;24.25;47.18;99792.41;10307345;28;96681;-81
2023/07/31 10:56:04;;;;;;;4.15;1.00;;;25.40;73.20;;;24.40;47.11;99785.41;10289928;28;98035;-80
2023/07/31 11:01:08;;;;;;;2.95;1.20;;;25.60;72.90;;;24.57;46.24;99783.25;10296769;28;96586;-81
2023/07/31 11:06:13;;;;;;;2.92;1.02;;;25.80;72.50;;;24.67;44.36;99783.28;10322513;28;97858;-81
2023/07/31 11:11:21;;;;;;;;;;;25.90;70.40;;;24.77;44.62;99777.00;10281292;28;97104;-81
2023/07/31 11:16:25;;;;;;;3.67;1.10;;;25.90;69.70;;;24.85;43.76;99778.38;10291020;28;96642;-80
2023/07/31 11:21:29;;;;;;;3.50;1.30;;;26.10;69.30;;;24.90;44.50;99783.81;10274420;28;96564;-82
2023/07/31 11:26:33;;;;;;;2.05;0.82;;;26.10;69.50;;;24.98;44.27;99769.69;10312609;28;97499;-82
2023/07/31 11:31:46;;;;;;;3.30;1.17;;;26.20;69.40;;;25.10;43.37;99764.78;10284737;28;96672;-82
2023/07/31 11:36:57;;;;;;;4.82;1.23;;;26.30;67.70;;;25.21;43.59;99762.88;10297138;28;98091;-83
2023/07/31 11:42:02;;;;;;;2.55;1.17;;;26.40;68.20;;;25.27;44.55;99765.31;10276975;28;97529;-82
2023/07/31 11:47:07;;;;;;;3.92;1.20;;;26.40;68.40;;;25.39;44.12;99756.03;10272161;28;96656;-82
2023/07/31 11:52:12;;;;;;;2.03;1.00;;;26.50;68.40;;;25.52;44.34;99750.81;10255391;28;96530;-80
2023/07/31 11:57:16;;;;;;;6.75;1.13;;;26.70;68.40;;;25.68;42.65;99756.22;10286038;28;98373;-80
2023/07/31 12:02:20;;;;;;;3.33;1.33;;;26.90;66.90;;;25.92;42.60;99765.41;10277323;28;97242;-80
2023/07/31 12:07:24;;;;;;;3.65;1.08;;;27.10;66.70;;;26.03;42.10;99764.25;10293145;28;96528;-83
2023/07/31 12:12:29;;;;;;;2.30;1.10;;;27.30;66.00;;;26.06;40.08;99750.06;10254021;28;96404;-80
2023/07/31 12:17:32;;;;;;;3.28;1.13;;;27.40;63.70;;;26.20;41.62;99747.53;10256168;28;96666;-79
2023/07/31 12:22:36;;;;;;;3.08;0.82;;;27.40;64.40;;;26.39;40.39;99724.00;10308591;28;96667;-80
2023/07/31 12:27:44;;;;;;;2.58;1.10;;;27.60;63.40;;;26.43;40.20;99740.59;10294477;28;98058;-79
2023/07/31 12:32:47;;;;;;;2.35;1.00;;;27.60;63.20;;;26.45;40.57;99719.34;10298427;28;96684;-79
2023/07/31 12:37:51;;;;;;;4.00;1.10;;;27.60;63.00;;;26.50;39.87;99715.75;10300278;28;96421;-79
2023/07/31 12:42:55;;;;;;;2.70;0.80;;;27.70;62.40;;;26.60;40.66;99712.97;10292749;28;96614;-79
2023/07/31 12:48:00;;;;;;;3.78;1.13;;;27.80;63.00;;;26.72;38.96;99701.69;10266221;28;96984;-81
2023/07/31 12:53:05;;;;;;;1.67;0.82;;;27.90;61.20;;;26.82;39.51;99710.59;10284941;28;96551;-81
2023/07/31 12:58:09;;;;;;;3.28;1.08;;;28.00;61.60;;;27.06;38.84;99697.03;10286654;28;96509;-80
2023/07/31 13:03:12;;;;;;;2.30;0.93;;;28.30;61.10;;;27.23;38.82;99693.84;10314949;28;97605;-79
2023/07/31 13:08:17;;;;;;;3.58;1.25;;;28.50;60.40;;;27.50;37.99;99684.22;10295177;28;96743;-80
2023/07/31 13:13:22;;;;;;;3.28;0.90;;;29.00;59.50;;;27.66;37.18;99688.41;10293408;28;96516;-80
2023/07/31 13:18:25;;;;;;;2.33;0.98;;;29.30;58.60;;;27.97;37.43;99689.63;10310371;28;98490;-80
2023/07/31 13:23:32;;;;;;;2.35;1.17;;;29.70;58.60;;;28.17;35.83;99682.22;10339100;28;96878;-79
2023/07/31 13:28:36;;;;;;;2.42;1.00;;;29.90;57.30;;;28.33;36.46;99678.19;10312732;28;96584;-80
2023/07/31 13:33:40;;;;;;;2.15;1.00;;;29.90;57.10;;;28.70;35.81;99668.25;10341265;28;96420;-79
2023/07/31 13:38:46;;;;;;;3.03;0.80;;;30.10;57.00;;;28.86;35.10;99660.59;10261409;28;96524;-81
2023/07/31 13:43:50;;;;;;;4.78;1.15;;;30.10;56.10;;;28.78;34.10;99657.44;10295798;28;96647;-79
2023/07/31 13:48:55;;;;;;;3.78;1.20;;;29.90;54.90;;;28.38;34.45;99661.72;10308336;28;97543;-79
2023/07/31 13:53:59;;;;;;;2.10;1.00;;;29.40;55.00;;;28.02;35.15;99668.81;10283192;28;96669;-80
2023/07/31 13:59:02;;;;;;;2.78;1.00;;;28.90;55.70;;;27.93;35.32;99665.94;10277315;28;96579;-80
2023/07/31 14:04:06;;;;;;;2.13;0.80;;;28.80;55.90;;;27.76;35.43;99666.44;10278985;28;97123;-80
2023/07/31 14:09:10;;;;;;;3.22;1.00;;;28.60;56.10;;;27.56;37.45;99661.22;10282474;28;97688;-79
2023/07/31 14:14:14;;;;;;;3.30;0.88;;;28.50;57.10;;;27.42;36.65;99647.50;10267857;28;97394;-79
2023/07/31 14:19:17;;;;;;;3.53;1.10;;;28.50;57.40;;;27.52;36.32;99654.72;10330510;28;96875;-79
2023/07/31 14:24:21;;;;;;;3.80;0.90;;;28.60;56.70;;;27.15;35.67;99656.28;10325603;28;96703;-79
2023/07/31 14:29:25;;;;;;;4.70;1.02;;;28.40;56.10;;;26.74;37.05;99656.69;10305442;28;98225;-81
2023/07/31 14:34:30;;;;;;;3.75;0.93;;;27.90;56.80;;;26.46;38.38;99657.50;10283766;28;96787;-80
2023/07/31 14:39:34;;;;;;;2.28;1.00;;;27.60;57.90;;;26.41;38.11;99645.56;10287073;28;96591;-79
2023/07/31 14:44:38;;;;;;;1.77;0.95;;;27.60;57.50;;;26.72;38.16;99637.09;10307887;28;96943;-80
2023/07/31 14:49:41;;;;;;;4.90;1.05;;;28.00;57.60;;;27.01;37.86;99636.25;10271857;28;96769;-80
2023/07/31 14:54:45;;;;;;;2.42;0.90;;;28.40;57.40;;;27.49;38.25;99628.84;10292959;28;96918;-80
2023/07/31 14:59:49;;;;;;;3.47;1.15;;;29.00;57.50;;;27.99;37.45;99632.78;10278938;28;96670;-80
2023/07/31 15:04:52;;;;;;;6.78;1.00;;;29.70;57.00;;;28.26;35.24;99621.16;10284016;28;97900;-80
2023/07/31 15:09:56;;;;;;;1.98;0.85;;;29.90;55.00;;;28.48;34.98;99606.06;10292064;28;97810;-80
2023/07/31 15:15:02;;;;;;;1.73;1.00;;;30.00;54.30;;;28.75;33.86;99622.50;10277089;28;97955;-80
2023/07/31 15:20:07;;;;;;;1.67;0.60;;;30.30;53.90;;;28.49;34.80;99616.72;10274218;28;98937;-80
2023/07/31 15:25:10;;;;;;;3.10;1.13;;;29.80;54.00;;;28.21;35.21;99607.59;10275350;28;96645;-80
2023/07/31 15:30:14;;;;;;;3.28;1.00;;;29.60;54.40;;;28.67;34.45;99597.78;10282419;28;97418;-82
2023/07/31 15:35:18;;;;;;;2.08;1.10;;;30.00;54.40;;;28.86;34.03;99598.53;10290245;28;96750;-78
2023/07/31 15:40:25;;;;;;;2.60;0.98;;;30.20;53.60;;;28.87;33.54;99604.78;10262452;28;96656;-79
2023/07/31 15:45:30;;;;;;;3.40;1.15;;;30.10;52.70;;;28.77;32.87;99592.94;10295692;28;96615;-80
2023/07/31 15:50:33;;;;;;;2.35;0.73;;;30.20;52.40;;;28.79;33.30;99581.72;10287810;28;98383;-78
2023/07/31 15:55:37;;;;;;;2.38;0.90;;;30.10;52.80;;;28.97;32.88;99586.31;10284099;28;96628;-79
2023/07/31 16:00:41;;;;;;;2.67;1.08;;;30.30;52.30;;;28.98;32.64;99596.13;10272103;28;96748;-79
2023/07/31 16:05:44;;;;;;;3.15;0.90;;;30.20;51.80;;;28.55;32.83;99579.16;10306743;28;96557;-79
2023/07/31 16:10:48;;;;;;;2.92;1.00;;;29.70;51.90;;;28.26;33.94;99582.91;10287668;28;98679;-79
2023/07/31 16:15:52;;;;;;;3.85;1.50;;;29.30;52.50;;;28.16;33.22;99582.28;10258385;28;97351;-79
2023/07/31 16:20:57;;;;;;;3.55;1.10;;;29.10;52.40;;;27.92;34.20;99583.19;10285225;28;96703;-79
2023/07/31 16:26:00;;;;;;;1.63;0.82;;;28.90;53.10;;;27.73;34.70;99591.41;10271653;28;97744;-80
2023/07/31 16:31:04;;;;;;;2.53;0.90;;;28.70;53.40;;;27.52;34.54;99579.13;10274474;28;96617;-80
2023/07/31 16:36:08;;;;;;;2.33;1.08;;;28.60;53.20;;;26.94;35.39;99588.31;10281896;28;96547;-80
2023/07/31 16:41:11;;;;;;;3.03;0.80;;;28.00;53.80;;;26.28;36.67;99585.44;10282091;28;96797;-80
2023/07/31 16:46:15;;;;;;;3.30;1.27;;;27.30;54.80;;;25.56;38.14;99587.88;10284464;28;97582;-80
2023/07/31 16:51:20;;;;;;;3.42;1.10;;;26.60;55.80;;;25.06;39.49;99592.44;10290122;28;96685;-80
2023/07/31 16:56:24;;;;;;;3.20;1.10;;;26.10;56.80;;;24.65;39.93;99599.88;10293257;28;96610;-80
2023/07/31 17:01:31;;;;;;;4.13;0.82;;;25.60;57.70;;;24.36;40.99;99591.53;10292888;28;96725;-80
2023/07/31 17:06:36;;;;;;;2.75;0.93;;;25.30;58.20;;;24.12;41.79;99594.75;10292867;28;97171;-81
2023/07/31 17:11:39;;;;;;;3.92;1.02;;;25.10;59.00;;;23.95;42.43;99586.06;10282120;28;97069;-79
2023/07/31 17:16:44;;;;;;;3.45;1.40;;;24.90;59.80;;;23.84;42.74;99593.38;10273852;28;98762;-80
2023/07/31 17:21:48;;;;;;;2.47;0.93;;;24.80;60.10;;;23.75;43.09;99581.44;10278789;28;96873;-80
2023/07/31 17:26:51;;;;;;;4.22;0.88;;;24.70;60.80;;;23.71;43.91;99596.63;10292165;28;96699;-80
2023/07/31 17:31:55;;;;;;;3.03;0.85;;;24.70;61.40;;;23.56;44.46;99589.22;10282570;28;97565;-81
2023/07/31 17:36:59;;;;;;;1.42;0.85;;;24.50;62.00;;;23.47;45.04;99607.94;10298369;28;96710;-80
2023/07/31 17:42:03;;;;;;;4.55;1.08;;;24.40;63.10;;;23.38;45.20;99611.41;10293592;28;97865;-80
2023/07/31 17:47:06;;;;;;;2.10;0.88;;;24.30;62.80;;;23.28;45.14;99611.41;10283883;28;96612;-80
2023/07/31 17:52:11;;;;;;;3.53;1.02;;;24.20;63.00;;;23.18;45.09;99612.16;10283425;28;98085;-81
2023/07/31 17:57:15;;;;;;;2.20;0.98;;;24.10;63.10;;;23.10;45.65;99613.50;10286938;28;96731;-81
2023/07/31 18:02:19;;;;;;;3.50;0.90;;;24.00;63.60;;;23.05;45.59;99605.34;10297371;28;96829;-81
2023/07/31 18:07:22;;;;;;;4.70;1.10;;;24.10;63.30;;;23.03;45.74;99618.34;10282722;28;96530;-80
2023/07/31 18:12:26;;;;;;;2.55;0.98;;;24.00;63.40;;;23.02;46.45;99615.88;10265333;28;96550;-80
2023/07/31 18:17:30;;;;;;;2.40;0.90;;;24.00;64.10;;;22.90;46.60;99627.75;10286905;28;97802;-80
2023/07/31 18:22:34;;;;;;;2.17;1.17;;;23.90;64.20;;;22.64;48.45;99621.34;10294872;28;99006;-80
2023/07/31 18:27:38;;;;;;;5.97;1.20;;;23.70;65.70;;;22.38;48.68;99638.47;10273208;28;98311;-80
2023/07/31 18:32:41;;;;;;;4.25;1.58;;;23.40;66.40;;;22.11;49.80;99643.94;10272842;28;96752;-80
2023/07/31 18:37:46;;;;;;;4.75;1.73;;;23.10;67.50;;;21.78;51.08;99636.81;10288651;28;97500;-80
2023/07/31 18:42:50;;;;;;;4.63;1.85;;;22.80;68.60;;;21.55;52.02;99646.03;10274024;28;96512;-80
2023/07/31 18:47:54;;;;;;;3.38;1.33;;;22.50;69.70;;;21.25;53.60;99658.09;10256760;28;96551;-80
2023/07/31 18:52:57;;;;;;;3.42;1.10;;;22.20;70.70;;;20.94;54.08;99653.34;10271501;28;96607;-80
2023/07/31 18:58:01;;;;;;;2.95;1.73;;;21.90;71.40;;;20.72;55.94;99659.50;10274422;28;96607;-80
2023/07/31 19:03:05;;;;;;;2.78;1.50;;;21.70;72.60;;;20.51;57.00;99658.41;10316293;28;96458;-80
2023/07/31 19:08:09;;;;;;;3.22;1.20;;;21.50;73.60;;;20.35;57.55;99661.88;10287095;28;98705;-80
2023/07/31 19:13:12;;;;;;;2.90;1.30;;;21.30;74.30;;;20.26;57.15;99652.53;10264298;28;98821;-80
2023/07/31 19:18:17;;;;;;;2.90;1.05;;;21.20;74.50;;;20.20;57.24;99651.63;10269550;28;96803;-80
2023/07/31 19:23:21;;;;;;;2.35;1.02;;;21.20;74.70;;;20.22;57.42;99654.91;10280198;28;97819;-80
2023/07/31 19:28:25;;;;;;;3.38;0.98;;;21.20;74.80;;;20.24;57.70;99657.38;10275110;28;97874;-80
2023/07/31 19:33:29;;;;;;;3.95;1.40;;;21.20;74.90;;;20.23;57.34;99658.44;10260879;28;99030;-80
2023/07/31 19:38:34;;;;;;;3.58;1.02;;;21.20;75.00;;;20.21;57.30;99657.84;10293212;28;96437;-79
2023/07/31 19:43:38;;;;;;;3.35;1.25;;;21.20;74.90;;;20.18;57.31;99663.72;10279107;28;98221;-79
2023/07/31 19:48:41;;;;;;;5.10;1.60;;;21.20;74.90;;;20.10;57.76;99664.13;10284182;28;96633;-79
2023/07/31 19:53:45;;;;;;;4.95;1.05;;;21.10;75.10;;;19.96;58.61;99660.91;10256517;28;97828;-78
2023/07/31 19:58:49;;;;;;;3.58;1.02;;;21.00;75.70;;;19.87;58.86;99665.88;10280848;28;96598;-79
2023/07/31 20:03:53;;;;;;;1.58;1.02;;;20.90;76.00;;;19.82;59.06;99657.69;10285708;28;96638;-79
2023/07/31 20:08:57;;;;;;;3.20;1.08;;;20.80;76.30;;;19.81;58.83;99657.94;10278510;28;96566;-79
2023/07/31 20:14:05;;;;;;;2.90;1.25;;;20.80;76.50;;;19.84;58.68;99647.47;10287312;28;96644;-80
2023/07/31 20:19:09;;;;;;;3.38;1.20;;;20.80;76.30;;;19.88;58.37;99645.13;10275545;28;97671;-79
2023/07/31 20:24:13;;;;;;;2.97;1.27;;;20.80;76.20;;;19.92;58.11;99652.50;10294385;28;97455;-79
2023/07/31 20:29:16;;;;;;;4.00;1.48;;;20.80;76.10;;;19.94;57.67;99642.28;10289601;28;98741;-78
2023/07/31 20:34:20;;;;;;;5.80;1.27;;;20.90;76.00;;;19.99;57.86;99655.88;10305960;28;98635;-79
2023/07/31 20:39:24;;;;;;;2.15;1.00;;;21.00;75.90;;;20.04;57.82;99655.13;10297263;28;98452;-80
2023/07/31 20:44:28;;;;;;;2.28;1.20;;;21.00;76.00;;;20.00;59.43;99653.97;10292034;28;96582;-81
2023/07/31 20:49:31;;;;;;;5.20;1.35;;;21.00;77.00;;;19.84;60.50;99657.44;10284465;28;98426;-80
2023/07/31 20:54:35;;;;;;;3.25;1.30;;;20.90;77.90;;;19.60;61.51;99643.25;10279365;28;98123;-80
2023/07/31 20:59:39;;;;;;;2.80;1.48;;;20.70;79.30;;;19.32;63.72;99644.03;10294964;28;96690;-81
2023/07/31 21:04:42;;;;;;;5.55;1.65;;;20.40;80.30;;;19.05;65.25;99646.41;10290139;28;97366;-80